sensor_id;sensor_type;location;lat;lon;timestamp;temperature;humidity
12166;DHT22;6146;48.128;11.476;2022-10-04T00:01:29;6.30;99.90
12166;DHT22;6146;48.128;11.476;2022-10-04T00:04:06;6.30;99.90
12166;DHT22;6146;48.128;11.476;2022-10-04T00:06:33;6.40;99.90
12166;DHT22;6146;48.128;11.476;2022-10-04T00:09:07;6.50;99.90
12166;DHT22;6146;48.128;11.476;2022-10-04T00:11:37;6.40;99.90
12166;DHT22;6146;48.128;11.476;2022-10-04T00:16:39;6.50;99.90
12166;DHT22;6146;48.128;11.476;2022-10-04T00:24:25;6.40;99.90
12166;DHT22;6146;48.128;11.476;2022-10-04T00:29:42;6.40;99.90
12166;DHT22;6146;48.128;11.476;2022-10-04T00:32:24;6.40;99.90
12166;DHT22;6146;48.128;11.476;2022-10-04T00:34:51;6.30;99.90
12166;DHT22;6146;48.128;11.476;2022-10-04T00:37:19;6.30;99.90
12166;DHT22;6146;48.128;11.476;2022-10-04T00:40:12;6.20;99.90
12166;DHT22;6146;48.128;11.476;2022-10-04T00:45:42;6.10;99.90
12166;DHT22;6146;48.128;11.476;2022-10-04T00:48:37;6.10;99.90
12166;DHT22;6146;48.128;11.476;2022-10-04T00:51:24;6.00;99.90
12166;DHT22;6146;48.128;11.476;2022-10-04T00:54:02;6.00;99.90
12166;DHT22;6146;48.128;11.476;2022-10-04T00:56:45;5.90;99.90
12166;DHT22;6146;48.128;11.476;2022-10-04T00:59:40;5.90;99.90
12166;DHT22;6146;48.128;11.476;2022-10-04T01:02:17;5.90;99.90
12166;DHT22;6146;48.128;11.476;2022-10-04T01:05:06;5.80;99.90
12166;DHT22;6146;48.128;11.476;2022-10-04T01:07:43;5.80;99.90
12166;DHT22;6146;48.128;11.476;2022-10-04T01:10:16;5.70;99.90
12166;DHT22;6146;48.128;11.476;2022-10-04T01:13:12;5.70;99.90
12166;DHT22;6146;48.128;11.476;2022-10-04T01:15:43;5.70;99.90
12166;DHT22;6146;48.128;11.476;2022-10-04T01:20:57;5.60;99.90
12166;DHT22;6146;48.128;11.476;2022-10-04T01:28:57;5.50;99.90
12166;DHT22;6146;48.128;11.476;2022-10-04T01:31:27;5.50;99.90
12166;DHT22;6146;48.128;11.476;2022-10-04T01:33:54;5.50;99.90
12166;DHT22;6146;48.128;11.476;2022-10-04T01:36:20;5.50;99.90
12166;DHT22;6146;48.128;11.476;2022-10-04T01:38:46;5.40;99.90
12166;DHT22;6146;48.128;11.476;2022-10-04T01:41:14;5.40;99.90
12166;DHT22;6146;48.128;11.476;2022-10-04T01:43:47;5.40;99.90
12166;DHT22;6146;48.128;11.476;2022-10-04T01:46:22;5.40;99.90
12166;DHT22;6146;48.128;11.476;2022-10-04T01:48:50;5.40;99.90
12166;DHT22;6146;48.128;11.476;2022-10-04T01:51:35;5.40;99.90
12166;DHT22;6146;48.128;11.476;2022-10-04T01:54:05;5.40;99.90
12166;DHT22;6146;48.128;11.476;2022-10-04T01:56:54;5.40;99.90
12166;DHT22;6146;48.128;11.476;2022-10-04T01:59:49;5.40;99.90
12166;DHT22;6146;48.128;11.476;2022-10-04T02:04:55;5.30;99.90
12166;DHT22;6146;48.128;11.476;2022-10-04T02:07:23;5.30;99.90
12166;DHT22;6146;48.128;11.476;2022-10-04T02:09:55;5.30;99.90
12166;DHT22;6146;48.128;11.476;2022-10-04T02:12:23;5.20;99.90
12166;DHT22;6146;48.128;11.476;2022-10-04T02:14:52;5.20;99.90
12166;DHT22;6146;48.128;11.476;2022-10-04T02:17:26;5.20;99.90
12166;DHT22;6146;48.128;11.476;2022-10-04T02:19:53;5.20;99.90
12166;DHT22;6146;48.128;11.476;2022-10-04T02:22:19;5.10;99.90
12166;DHT22;6146;48.128;11.476;2022-10-04T02:24:47;5.10;99.90
12166;DHT22;6146;48.128;11.476;2022-10-04T02:27:14;5.00;99.90
12166;DHT22;6146;48.128;11.476;2022-10-04T02:29:40;5.00;99.90
12166;DHT22;6146;48.128;11.476;2022-10-04T02:32:07;5.00;99.90
12166;DHT22;6146;48.128;11.476;2022-10-04T02:34:52;5.00;99.90
12166;DHT22;6146;48.128;11.476;2022-10-04T02:37:25;5.00;99.90
12166;DHT22;6146;48.128;11.476;2022-10-04T02:40:02;5.00;99.90
12166;DHT22;6146;48.128;11.476;2022-10-04T02:42:56;4.90;99.90
12166;DHT22;6146;48.128;11.476;2022-10-04T02:50:52;4.80;99.90
12166;DHT22;6146;48.128;11.476;2022-10-04T02:53:40;4.80;99.90
12166;DHT22;6146;48.128;11.476;2022-10-04T02:56:09;4.80;99.90
12166;DHT22;6146;48.128;11.476;2022-10-04T02:58:38;4.70;99.90
12166;DHT22;6146;48.128;11.476;2022-10-04T03:01:04;4.70;99.90
12166;DHT22;6146;48.128;11.476;2022-10-04T03:03:32;4.70;99.90
12166;DHT22;6146;48.128;11.476;2022-10-04T03:06:12;4.70;99.90
12166;DHT22;6146;48.128;11.476;2022-10-04T03:08:54;4.80;99.90
12166;DHT22;6146;48.128;11.476;2022-10-04T03:11:24;4.70;99.90
12166;DHT22;6146;48.128;11.476;2022-10-04T03:13:54;4.80;99.90
12166;DHT22;6146;48.128;11.476;2022-10-04T03:16:20;4.80;99.90
12166;DHT22;6146;48.128;11.476;2022-10-04T03:18:47;4.90;99.90
12166;DHT22;6146;48.128;11.476;2022-10-04T03:21:15;4.90;99.90
12166;DHT22;6146;48.128;11.476;2022-10-04T03:23:42;4.90;99.90
12166;DHT22;6146;48.128;11.476;2022-10-04T03:26:24;4.90;99.90
12166;DHT22;6146;48.128;11.476;2022-10-04T03:28:51;4.90;99.90
12166;DHT22;6146;48.128;11.476;2022-10-04T03:31:17;4.90;99.90
12166;DHT22;6146;48.128;11.476;2022-10-04T03:33:44;4.90;99.90
12166;DHT22;6146;48.128;11.476;2022-10-04T03:36:13;4.90;99.90
12166;DHT22;6146;48.128;11.476;2022-10-04T03:38:41;4.90;99.90
12166;DHT22;6146;48.128;11.476;2022-10-04T03:41:09;4.90;99.90
12166;DHT22;6146;48.128;11.476;2022-10-04T03:43:41;4.80;99.90
12166;DHT22;6146;48.128;11.476;2022-10-04T03:46:09;4.80;99.90
12166;DHT22;6146;48.128;11.476;2022-10-04T03:48:43;4.70;99.90
12166;DHT22;6146;48.128;11.476;2022-10-04T03:51:15;4.70;99.90
12166;DHT22;6146;48.128;11.476;2022-10-04T03:53:44;4.70;99.90
12166;DHT22;6146;48.128;11.476;2022-10-04T03:56:14;4.70;99.90
12166;DHT22;6146;48.128;11.476;2022-10-04T03:58:41;7.10;99.90
12166;DHT22;6146;48.128;11.476;2022-10-04T04:04:12;4.60;99.90
12166;DHT22;6146;48.128;11.476;2022-10-04T04:07:00;4.60;99.90
12166;DHT22;6146;48.128;11.476;2022-10-04T04:12:36;4.60;99.90
12166;DHT22;6146;48.128;11.476;2022-10-04T04:15:05;4.50;99.90
12166;DHT22;6146;48.128;11.476;2022-10-04T04:17:37;4.50;99.90
12166;DHT22;6146;48.128;11.476;2022-10-04T04:20:24;5.10;99.90
12166;DHT22;6146;48.128;11.476;2022-10-04T04:22:58;4.50;99.90
12166;DHT22;6146;48.128;11.476;2022-10-04T04:25:26;4.60;99.90
12166;DHT22;6146;48.128;11.476;2022-10-04T04:28:00;4.60;99.90
12166;DHT22;6146;48.128;11.476;2022-10-04T04:30:28;4.40;99.90
12166;DHT22;6146;48.128;11.476;2022-10-04T04:32:56;5.10;99.90
12166;DHT22;6146;48.128;11.476;2022-10-04T04:35:31;4.60;99.90
12166;DHT22;6146;48.128;11.476;2022-10-04T04:38:23;4.60;99.90
12166;DHT22;6146;48.128;11.476;2022-10-04T04:40:50;4.50;99.90
12166;DHT22;6146;48.128;11.476;2022-10-04T04:43:20;4.50;99.90
12166;DHT22;6146;48.128;11.476;2022-10-04T04:45:49;4.50;99.90
12166;DHT22;6146;48.128;11.476;2022-10-04T04:48:17;4.30;99.90
12166;DHT22;6146;48.128;11.476;2022-10-04T04:50:51;4.50;99.90
12166;DHT22;6146;48.128;11.476;2022-10-04T04:53:27;4.40;99.90
12166;DHT22;6146;48.128;11.476;2022-10-04T04:55:58;6.30;99.90
12166;DHT22;6146;48.128;11.476;2022-10-04T04:58:27;4.30;99.90
12166;DHT22;6146;48.128;11.476;2022-10-04T05:01:23;5.20;99.90
12166;DHT22;6146;48.128;11.476;2022-10-04T05:06:27;4.20;99.90
12166;DHT22;6146;48.128;11.476;2022-10-04T05:08:53;4.20;99.90
12166;DHT22;6146;48.128;11.476;2022-10-04T05:11:20;4.20;99.90
12166;DHT22;6146;48.128;11.476;2022-10-04T05:13:51;4.20;99.90
12166;DHT22;6146;48.128;11.476;2022-10-04T05:16:18;4.20;99.90
12166;DHT22;6146;48.128;11.476;2022-10-04T05:18:45;4.20;99.90
12166;DHT22;6146;48.128;11.476;2022-10-04T05:21:18;6.10;99.90
12166;DHT22;6146;48.128;11.476;2022-10-04T05:23:44;4.30;99.90
12166;DHT22;6146;48.128;11.476;2022-10-04T05:26:11;4.30;99.90
12166;DHT22;6146;48.128;11.476;2022-10-04T05:28:38;4.30;99.90
12166;DHT22;6146;48.128;11.476;2022-10-04T05:34:22;4.50;99.90
12166;DHT22;6146;48.128;11.476;2022-10-04T05:37:15;4.50;99.90
12166;DHT22;6146;48.128;11.476;2022-10-04T05:40:04;4.60;99.90
12166;DHT22;6146;48.128;11.476;2022-10-04T05:42:42;4.80;99.90
12166;DHT22;6146;48.128;11.476;2022-10-04T05:45:21;4.90;99.90
12166;DHT22;6146;48.128;11.476;2022-10-04T05:47:54;5.10;99.90
12166;DHT22;6146;48.128;11.476;2022-10-04T05:50:41;5.30;99.90
12166;DHT22;6146;48.128;11.476;2022-10-04T05:53:29;5.50;99.90
12166;DHT22;6146;48.128;11.476;2022-10-04T06:12:45;7.20;99.90
12166;DHT22;6146;48.128;11.476;2022-10-04T06:21:24;8.30;99.90
12166;DHT22;6146;48.128;11.476;2022-10-04T06:24:13;8.50;99.90
12166;DHT22;6146;48.128;11.476;2022-10-04T06:26:45;8.70;99.90
12166;DHT22;6146;48.128;11.476;2022-10-04T06:29:19;8.90;99.90
12166;DHT22;6146;48.128;11.476;2022-10-04T06:31:56;9.70;99.90
12166;DHT22;6146;48.128;11.476;2022-10-04T06:37:31;9.20;99.90
12166;DHT22;6146;48.128;11.476;2022-10-04T06:40:11;9.30;99.90
12166;DHT22;6146;48.128;11.476;2022-10-04T06:42:57;9.30;99.90
12166;DHT22;6146;48.128;11.476;2022-10-04T06:45:40;9.50;99.90
12166;DHT22;6146;48.128;11.476;2022-10-04T06:57:21;10.20;99.90
12166;DHT22;6146;48.128;11.476;2022-10-04T07:05:20;10.80;99.90
12166;DHT22;6146;48.128;11.476;2022-10-04T07:08:02;11.10;99.90
12166;DHT22;6146;48.128;11.476;2022-10-04T07:10:45;11.50;99.90
12166;DHT22;6146;48.128;11.476;2022-10-04T07:16:07;12.10;99.90
12166;DHT22;6146;48.128;11.476;2022-10-04T07:18:56;12.20;99.90
12166;DHT22;6146;48.128;11.476;2022-10-04T07:21:31;11.70;99.90
12166;DHT22;6146;48.128;11.476;2022-10-04T07:23:59;13.60;99.90
12166;DHT22;6146;48.128;11.476;2022-10-04T07:26:43;12.60;99.90
12166;DHT22;6146;48.128;11.476;2022-10-04T07:29:32;13.00;99.90
12166;DHT22;6146;48.128;11.476;2022-10-04T07:34:44;14.60;99.90
12166;DHT22;6146;48.128;11.476;2022-10-04T07:37:12;15.00;99.90
12166;DHT22;6146;48.128;11.476;2022-10-04T07:40:07;15.40;99.90
12166;DHT22;6146;48.128;11.476;2022-10-04T07:42:44;16.20;99.90
12166;DHT22;6146;48.128;11.476;2022-10-04T07:45:33;17.40;99.90
12166;DHT22;6146;48.128;11.476;2022-10-04T07:48:20;18.60;99.90
12166;DHT22;6146;48.128;11.476;2022-10-04T07:54:09;19.00;99.90
12166;DHT22;6146;48.128;11.476;2022-10-04T07:56:36;19.60;99.90
12166;DHT22;6146;48.128;11.476;2022-10-04T07:59:14;20.20;99.90
12166;DHT22;6146;48.128;11.476;2022-10-04T08:12:53;21.30;96.30
12166;DHT22;6146;48.128;11.476;2022-10-04T08:15:27;21.90;95.30
12166;DHT22;6146;48.128;11.476;2022-10-04T08:28:29;23.80;83.70
12166;DHT22;6146;48.128;11.476;2022-10-04T08:31:33;23.60;85.50
12166;DHT22;6146;48.128;11.476;2022-10-04T08:34:37;23.80;82.00
12166;DHT22;6146;48.128;11.476;2022-10-04T08:37:31;23.60;80.90
12166;DHT22;6146;48.128;11.476;2022-10-04T08:43:14;21.50;87.10
12166;DHT22;6146;48.128;11.476;2022-10-04T08:49:19;21.70;86.30
12166;DHT22;6146;48.128;11.476;2022-10-04T08:58:02;20.70;90.70
12166;DHT22;6146;48.128;11.476;2022-10-04T09:01:05;19.90;92.40
12166;DHT22;6146;48.128;11.476;2022-10-04T09:15:07;20.60;91.10
12166;DHT22;6146;48.128;11.476;2022-10-04T09:18:00;20.30;91.40
12166;DHT22;6146;48.128;11.476;2022-10-04T09:42:31;19.80;92.10
12166;DHT22;6146;48.128;11.476;2022-10-04T09:45:27;19.40;93.20
12166;DHT22;6146;48.128;11.476;2022-10-04T09:56:22;19.30;95.80
12166;DHT22;6146;48.128;11.476;2022-10-04T09:59:01;19.50;93.90
12166;DHT22;6146;48.128;11.476;2022-10-04T10:10:20;20.70;92.50
12166;DHT22;6146;48.128;11.476;2022-10-04T10:13:17;20.70;92.10
12166;DHT22;6146;48.128;11.476;2022-10-04T10:29:51;20.40;93.00
12166;DHT22;6146;48.128;11.476;2022-10-04T10:32:33;20.60;94.60
12166;DHT22;6146;48.128;11.476;2022-10-04T10:38:07;21.00;91.50
12166;DHT22;6146;48.128;11.476;2022-10-04T10:43:34;20.20;93.70
12166;DHT22;6146;48.128;11.476;2022-10-04T11:00:11;23.00;86.50
12166;DHT22;6146;48.128;11.476;2022-10-04T11:03:02;23.50;85.50
12166;DHT22;6146;48.128;11.476;2022-10-04T11:06:06;24.00;81.00
12166;DHT22;6146;48.128;11.476;2022-10-04T11:09:07;25.50;75.70
12166;DHT22;6146;48.128;11.476;2022-10-04T11:42:54;25.70;72.40
12166;DHT22;6146;48.128;11.476;2022-10-04T11:45:44;27.20;65.30
12166;DHT22;6146;48.128;11.476;2022-10-04T11:51:18;29.10;60.20
12166;DHT22;6146;48.128;11.476;2022-10-04T11:54:30;30.80;54.90
12166;DHT22;6146;48.128;11.476;2022-10-04T11:57:10;31.80;49.40
12166;DHT22;6146;48.128;11.476;2022-10-04T12:02:38;32.20;46.50
12166;DHT22;6146;48.128;11.476;2022-10-04T12:11:18;27.90;51.00
12166;DHT22;6146;48.128;11.476;2022-10-04T12:14:01;27.40;52.20
12166;DHT22;6146;48.128;11.476;2022-10-04T12:31:07;26.70;53.00
12166;DHT22;6146;48.128;11.476;2022-10-04T12:33:21;26.00;54.50
12166;DHT22;6146;48.128;11.476;2022-10-04T12:41:31;29.10;50.10
12166;DHT22;6146;48.128;11.476;2022-10-04T12:52:25;29.00;46.70
12166;DHT22;6146;48.128;11.476;2022-10-04T12:57:58;30.30;44.90
12166;DHT22;6146;48.128;11.476;2022-10-04T13:00:25;30.50;44.00
12166;DHT22;6146;48.128;11.476;2022-10-04T13:03:55;29.50;45.50
12166;DHT22;6146;48.128;11.476;2022-10-04T13:11:05;29.70;44.50
12166;DHT22;6146;48.128;11.476;2022-10-04T13:13:51;28.60;46.10
12166;DHT22;6146;48.128;11.476;2022-10-04T13:27:01;27.70;49.90
12166;DHT22;6146;48.128;11.476;2022-10-04T13:35:17;27.60;49.50
12166;DHT22;6146;48.128;11.476;2022-10-04T13:52:03;21.00;69.20
12166;DHT22;6146;48.128;11.476;2022-10-04T14:03:58;19.70;75.30
12166;DHT22;6146;48.128;11.476;2022-10-04T14:09:23;19.70;79.10
12166;DHT22;6146;48.128;11.476;2022-10-04T14:17:31;19.20;79.80
12166;DHT22;6146;48.128;11.476;2022-10-04T14:20:43;19.00;82.20
12166;DHT22;6146;48.128;11.476;2022-10-04T14:37:47;18.60;85.00
12166;DHT22;6146;48.128;11.476;2022-10-04T14:40:44;18.70;84.80
12166;DHT22;6146;48.128;11.476;2022-10-04T14:49:46;18.50;84.50
12166;DHT22;6146;48.128;11.476;2022-10-04T14:52:32;18.60;86.10
12166;DHT22;6146;48.128;11.476;2022-10-04T14:57:57;18.80;85.80
12166;DHT22;6146;48.128;11.476;2022-10-04T15:06:37;18.50;87.80
12166;DHT22;6146;48.128;11.476;2022-10-04T15:12:27;18.40;89.20
12166;DHT22;6146;48.128;11.476;2022-10-04T15:17:28;18.10;90.40
12166;DHT22;6146;48.128;11.476;2022-10-04T15:20:03;18.10;91.10
12166;DHT22;6146;48.128;11.476;2022-10-04T15:22:40;18.00;91.30
12166;DHT22;6146;48.128;11.476;2022-10-04T15:30:54;17.60;92.00
12166;DHT22;6146;48.128;11.476;2022-10-04T15:36:32;17.60;92.20
12166;DHT22;6146;48.128;11.476;2022-10-04T16:01:34;17.00;94.90
12166;DHT22;6146;48.128;11.476;2022-10-04T16:12:28;16.60;95.90
12166;DHT22;6146;48.128;11.476;2022-10-04T16:21:30;16.40;96.90
12166;DHT22;6146;48.128;11.476;2022-10-04T16:30:08;16.10;98.90
12166;DHT22;6146;48.128;11.476;2022-10-04T16:32:45;15.90;99.90
12166;DHT22;6146;48.128;11.476;2022-10-04T16:35:34;15.70;99.90
12166;DHT22;6146;48.128;11.476;2022-10-04T16:38:18;15.70;99.90
12166;DHT22;6146;48.128;11.476;2022-10-04T16:54:04;14.80;99.90
12166;DHT22;6146;48.128;11.476;2022-10-04T17:02:12;14.40;99.90
12166;DHT22;6146;48.128;11.476;2022-10-04T17:12:23;14.00;99.90
12166;DHT22;6146;48.128;11.476;2022-10-04T17:15:30;13.90;99.90
12166;DHT22;6146;48.128;11.476;2022-10-04T17:34:50;13.50;99.90
12166;DHT22;6146;48.128;11.476;2022-10-04T17:38:09;13.30;99.90
12166;DHT22;6146;48.128;11.476;2022-10-04T17:40:58;13.30;99.90
12166;DHT22;6146;48.128;11.476;2022-10-04T17:46:43;13.20;99.90
12166;DHT22;6146;48.128;11.476;2022-10-04T17:49:40;13.10;99.90
12166;DHT22;6146;48.128;11.476;2022-10-04T17:52:30;13.00;99.90
12166;DHT22;6146;48.128;11.476;2022-10-04T17:55:20;13.00;99.90
12166;DHT22;6146;48.128;11.476;2022-10-04T17:58:24;12.80;99.90
12166;DHT22;6146;48.128;11.476;2022-10-04T18:00:56;12.70;99.90
12166;DHT22;6146;48.128;11.476;2022-10-04T18:03:37;12.60;99.90
12166;DHT22;6146;48.128;11.476;2022-10-04T18:06:18;12.50;99.90
12166;DHT22;6146;48.128;11.476;2022-10-04T18:08:57;12.40;99.90
12166;DHT22;6146;48.128;11.476;2022-10-04T18:11:39;12.30;99.90
12166;DHT22;6146;48.128;11.476;2022-10-04T18:17:08;12.10;99.90
12166;DHT22;6146;48.128;11.476;2022-10-04T18:24:46;11.80;99.90
12166;DHT22;6146;48.128;11.476;2022-10-04T18:27:21;11.70;99.90
12166;DHT22;6146;48.128;11.476;2022-10-04T18:30:13;11.70;99.90
12166;DHT22;6146;48.128;11.476;2022-10-04T18:32:50;11.60;99.90
12166;DHT22;6146;48.128;11.476;2022-10-04T18:35:34;11.60;99.90
12166;DHT22;6146;48.128;11.476;2022-10-04T18:40:53;11.50;99.90
12166;DHT22;6146;48.128;11.476;2022-10-04T18:46:07;11.40;99.90
12166;DHT22;6146;48.128;11.476;2022-10-04T18:48:51;11.40;99.90
12166;DHT22;6146;48.128;11.476;2022-10-04T18:51:40;11.40;99.90
12166;DHT22;6146;48.128;11.476;2022-10-04T18:54:25;11.30;99.90
12166;DHT22;6146;48.128;11.476;2022-10-04T19:03:01;11.30;99.90
12166;DHT22;6146;48.128;11.476;2022-10-04T19:11:18;11.20;99.90
12166;DHT22;6146;48.128;11.476;2022-10-04T19:27:35;11.10;99.90
12166;DHT22;6146;48.128;11.476;2022-10-04T19:30:19;11.10;99.90
12166;DHT22;6146;48.128;11.476;2022-10-04T19:40:52;10.90;99.90
12166;DHT22;6146;48.128;11.476;2022-10-04T19:48:45;10.80;99.90
12166;DHT22;6146;48.128;11.476;2022-10-04T19:51:41;10.80;99.90
12166;DHT22;6146;48.128;11.476;2022-10-04T19:54:11;10.80;99.90
12166;DHT22;6146;48.128;11.476;2022-10-04T19:56:44;10.80;99.90
12166;DHT22;6146;48.128;11.476;2022-10-04T19:59:21;10.80;99.90
12166;DHT22;6146;48.128;11.476;2022-10-04T20:01:51;10.70;99.90
12166;DHT22;6146;48.128;11.476;2022-10-04T20:04:18;10.70;99.90
12166;DHT22;6146;48.128;11.476;2022-10-04T20:07:01;10.70;99.90
12166;DHT22;6146;48.128;11.476;2022-10-04T20:12:41;10.60;99.90
12166;DHT22;6146;48.128;11.476;2022-10-04T20:17:53;10.50;99.90
12166;DHT22;6146;48.128;11.476;2022-10-04T20:23:06;10.50;99.90
12166;DHT22;6146;48.128;11.476;2022-10-04T20:30:55;10.40;99.90
12166;DHT22;6146;48.128;11.476;2022-10-04T20:36:08;10.40;99.90
12166;DHT22;6146;48.128;11.476;2022-10-04T20:38:53;10.40;99.90
12166;DHT22;6146;48.128;11.476;2022-10-04T20:44:02;10.30;99.90
12166;DHT22;6146;48.128;11.476;2022-10-04T20:46:37;10.20;99.90
12166;DHT22;6146;48.128;11.476;2022-10-04T20:49:10;10.20;99.90
12166;DHT22;6146;48.128;11.476;2022-10-04T20:51:38;10.20;99.90
12166;DHT22;6146;48.128;11.476;2022-10-04T20:54:16;10.20;99.90
12166;DHT22;6146;48.128;11.476;2022-10-04T20:56:46;10.10;99.90
12166;DHT22;6146;48.128;11.476;2022-10-04T20:59:16;10.10;99.90
12166;DHT22;6146;48.128;11.476;2022-10-04T21:02:02;10.10;99.90
12166;DHT22;6146;48.128;11.476;2022-10-04T21:04:33;10.10;99.90
12166;DHT22;6146;48.128;11.476;2022-10-04T21:07:32;10.10;99.90
12166;DHT22;6146;48.128;11.476;2022-10-04T21:10:15;10.10;99.90
12166;DHT22;6146;48.128;11.476;2022-10-04T21:12:41;10.00;99.90
12166;DHT22;6146;48.128;11.476;2022-10-04T21:18:11;9.90;99.90
12166;DHT22;6146;48.128;11.476;2022-10-04T21:20:45;9.80;99.90
12166;DHT22;6146;48.128;11.476;2022-10-04T21:23:29;9.80;99.90
12166;DHT22;6146;48.128;11.476;2022-10-04T21:26:21;9.70;99.90
12166;DHT22;6146;48.128;11.476;2022-10-04T21:28:52;9.60;99.90
12166;DHT22;6146;48.128;11.476;2022-10-04T21:31:18;9.50;99.90
12166;DHT22;6146;48.128;11.476;2022-10-04T21:33:43;9.40;99.90
12166;DHT22;6146;48.128;11.476;2022-10-04T21:36:09;9.40;99.90
12166;DHT22;6146;48.128;11.476;2022-10-04T21:38:35;9.30;99.90
12166;DHT22;6146;48.128;11.476;2022-10-04T21:41:01;9.20;99.90
12166;DHT22;6146;48.128;11.476;2022-10-04T21:43:27;9.10;99.90
12166;DHT22;6146;48.128;11.476;2022-10-04T21:45:52;9.10;99.90
12166;DHT22;6146;48.128;11.476;2022-10-04T21:48:18;9.00;99.90
12166;DHT22;6146;48.128;11.476;2022-10-04T21:50:46;9.00;99.90
12166;DHT22;6146;48.128;11.476;2022-10-04T21:53:12;9.00;99.90
12166;DHT22;6146;48.128;11.476;2022-10-04T21:55:38;8.90;99.90
12166;DHT22;6146;48.128;11.476;2022-10-04T21:58:03;8.90;99.90
12166;DHT22;6146;48.128;11.476;2022-10-04T22:00:29;8.80;99.90
12166;DHT22;6146;48.128;11.476;2022-10-04T22:02:54;8.80;99.90
12166;DHT22;6146;48.128;11.476;2022-10-04T22:05:20;8.80;99.90
12166;DHT22;6146;48.128;11.476;2022-10-04T22:07:45;8.80;99.90
12166;DHT22;6146;48.128;11.476;2022-10-04T22:10:11;8.70;99.90
12166;DHT22;6146;48.128;11.476;2022-10-04T22:12:37;8.70;99.90
12166;DHT22;6146;48.128;11.476;2022-10-04T22:15:03;8.80;99.90
12166;DHT22;6146;48.128;11.476;2022-10-04T22:17:29;8.70;99.90
12166;DHT22;6146;48.128;11.476;2022-10-04T22:19:54;8.70;99.90
12166;DHT22;6146;48.128;11.476;2022-10-04T22:22:20;8.70;99.90
12166;DHT22;6146;48.128;11.476;2022-10-04T22:24:46;8.80;99.90
12166;DHT22;6146;48.128;11.476;2022-10-04T22:27:16;8.80;99.90
12166;DHT22;6146;48.128;11.476;2022-10-04T22:29:43;8.90;99.90
12166;DHT22;6146;48.128;11.476;2022-10-04T22:32:12;8.90;99.90
12166;DHT22;6146;48.128;11.476;2022-10-04T22:34:40;8.90;99.90
12166;DHT22;6146;48.128;11.476;2022-10-04T22:37:09;8.90;99.90
12166;DHT22;6146;48.128;11.476;2022-10-04T22:39:35;8.90;99.90
12166;DHT22;6146;48.128;11.476;2022-10-04T22:42:01;8.90;99.90
12166;DHT22;6146;48.128;11.476;2022-10-04T22:44:33;8.90;99.90
12166;DHT22;6146;48.128;11.476;2022-10-04T22:47:01;8.90;99.90
12166;DHT22;6146;48.128;11.476;2022-10-04T22:49:30;8.90;99.90
12166;DHT22;6146;48.128;11.476;2022-10-04T22:51:57;8.90;99.90
12166;DHT22;6146;48.128;11.476;2022-10-04T22:54:26;8.80;99.90
12166;DHT22;6146;48.128;11.476;2022-10-04T22:56:52;8.80;99.90
12166;DHT22;6146;48.128;11.476;2022-10-04T22:59:19;8.80;99.90
12166;DHT22;6146;48.128;11.476;2022-10-04T23:01:47;8.40;99.90
12166;DHT22;6146;48.128;11.476;2022-10-04T23:04:23;8.60;99.90
12166;DHT22;6146;48.128;11.476;2022-10-04T23:06:50;8.50;99.90
12166;DHT22;6146;48.128;11.476;2022-10-04T23:09:16;8.50;99.90
12166;DHT22;6146;48.128;11.476;2022-10-04T23:11:42;8.40;99.90
12166;DHT22;6146;48.128;11.476;2022-10-04T23:14:08;8.30;99.90
12166;DHT22;6146;48.128;11.476;2022-10-04T23:16:35;8.30;99.90
12166;DHT22;6146;48.128;11.476;2022-10-04T23:19:15;8.20;99.90
12166;DHT22;6146;48.128;11.476;2022-10-04T23:21:46;8.20;99.90
12166;DHT22;6146;48.128;11.476;2022-10-04T23:24:21;8.10;99.90
12166;DHT22;6146;48.128;11.476;2022-10-04T23:26:52;8.10;99.90
12166;DHT22;6146;48.128;11.476;2022-10-04T23:29:32;8.00;99.90
12166;DHT22;6146;48.128;11.476;2022-10-04T23:32:04;7.90;99.90
12166;DHT22;6146;48.128;11.476;2022-10-04T23:34:36;7.90;99.90
12166;DHT22;6146;48.128;11.476;2022-10-04T23:37:08;7.90;99.90
12166;DHT22;6146;48.128;11.476;2022-10-04T23:39:37;7.80;99.90
12166;DHT22;6146;48.128;11.476;2022-10-04T23:42:20;7.80;99.90
12166;DHT22;6146;48.128;11.476;2022-10-04T23:44:48;7.80;99.90
12166;DHT22;6146;48.128;11.476;2022-10-04T23:47:17;7.70;99.90
12166;DHT22;6146;48.128;11.476;2022-10-04T23:49:47;7.70;99.90
12166;DHT22;6146;48.128;11.476;2022-10-04T23:52:21;7.60;99.90
12166;DHT22;6146;48.128;11.476;2022-10-04T23:54:50;7.60;99.90
12166;DHT22;6146;48.128;11.476;2022-10-04T23:57:27;7.60;99.90
12166;DHT22;6146;48.128;11.476;2022-10-04T23:59:53;7.60;99.90
